Time;durP1;ratioP1;P1;durP2;ratioP2;P2;SDS_P1;SDS_P2;PMS_P1;PMS_P2;Temp;Humidity;BMP_temperature;BMP_pressure;BME280_temperature;BME280_humidity;BME280_pressure;Samples;Min_cycle;Max_cycle;Signal;HPM_P1;HPM_P2
2021/08/01 00:02:15;;;;;;;4.95;3.55;;;15.90;99.90;;;;;;5008753;28;20042;-75
2021/08/01 00:04:41;;;;;;;4.90;3.70;;;15.90;99.90;;;;;;5003672;28;20269;-75
2021/08/01 00:07:07;;;;;;;4.72;3.40;;;15.60;99.90;;;;;;4999261;28;20037;-75
2021/08/01 00:09:33;;;;;;;5.18;3.95;;;15.80;99.90;;;;;;5004270;28;20400;-75
2021/08/01 00:11:58;;;;;;;5.00;3.55;;;15.60;99.90;;;;;;5008521;28;20469;-74
2021/08/01 00:14:24;;;;;;;6.00;4.25;;;15.50;99.90;;;;;;5004110;28;20034;-74
2021/08/01 00:16:49;;;;;;;4.65;3.70;;;15.70;99.90;;;;;;5001717;28;20034;-75
2021/08/01 00:19:15;;;;;;;5.00;4.10;;;15.70;99.90;;;;;;4996377;28;20033;-75
2021/08/01 00:21:40;;;;;;;6.15;3.83;;;15.60;99.90;;;;;;5008995;28;20110;-75
2021/08/01 00:24:06;;;;;;;5.75;3.92;;;15.60;99.90;;;;;;5006474;28;20062;-74
2021/08/01 00:26:31;;;;;;;4.75;3.40;;;15.40;99.90;;;;;;4994705;28;20046;-74
2021/08/01 00:28:57;;;;;;;7.78;4.05;;;15.50;99.90;;;;;;4995333;28;20477;-73
2021/08/01 00:31:22;;;;;;;6.80;4.20;;;15.40;99.90;;;;;;5009118;28;20635;-73
2021/08/01 00:33:48;;;;;;;7.65;4.20;;;15.40;99.90;;;;;;5008275;28;20072;-75
2021/08/01 00:36:14;;;;;;;6.85;4.60;;;15.30;99.90;;;;;;5006163;28;20030;-75
2021/08/01 00:38:39;;;;;;;4.78;3.97;;;15.60;99.90;;;;;;5001031;28;20026;-75
2021/08/01 00:41:05;;;;;;;4.20;3.65;;;15.50;99.90;;;;;;5001860;28;20041;-76
2021/08/01 00:43:32;;;;;;;4.45;3.70;;;15.40;99.90;;;;;;5005944;28;20041;-76
2021/08/01 00:45:58;;;;;;;3.70;3.28;;;15.50;99.90;;;;;;5008310;28;20030;-76
2021/08/01 00:48:26;;;;;;;4.43;3.67;;;15.50;99.90;;;;;;5002303;28;20034;-76
2021/08/01 00:50:52;;;;;;;8.20;3.88;;;15.50;99.90;;;;;;5014583;28;20032;-76
2021/08/01 00:53:18;;;;;;;4.55;3.53;;;15.60;99.90;;;;;;5005355;28;20026;-76
2021/08/01 00:55:44;;;;;;;9.43;4.25;;;15.40;99.90;;;;;;5007729;28;20030;-75
2021/08/01 00:58:09;;;;;;;5.95;4.03;;;15.40;99.90;;;;;;4998512;28;20024;-75
2021/08/01 01:01:05;;;;;;;4.40;3.72;;;15.40;99.90;;;;;;4999202;28;20477;-76
2021/08/01 01:03:42;;;;;;;5.15;3.42;;;15.40;99.90;;;;;;5000761;28;20480;-76
2021/08/01 01:06:15;;;;;;;5.18;3.60;;;15.60;99.90;;;;;;4992443;28;20404;-75
2021/08/01 01:08:50;;;;;;;4.30;3.47;;;15.70;99.90;;;;;;5006090;28;20034;-74
2021/08/01 01:11:17;;;;;;;4.10;3.58;;;15.60;99.90;;;;;;5000114;28;20030;-75
2021/08/01 01:13:51;;;;;;;5.82;3.85;;;15.60;99.90;;;;;;4999410;28;20026;-75
2021/08/01 01:16:17;;;;;;;9.48;3.70;;;15.30;99.90;;;;;;5001959;28;20381;-75
2021/08/01 01:18:50;;;;;;;5.30;4.10;;;15.20;99.90;;;;;;5005441;28;20034;-75
2021/08/01 01:21:22;;;;;;;4.82;3.70;;;15.30;99.90;;;;;;5002943;28;20029;-75
2021/08/01 01:24:28;;;;;;;4.18;3.70;;;15.50;99.90;;;;;;4997795;28;20026;-75
2021/08/01 01:27:20;;;;;;;5.18;4.63;;;15.30;99.90;;;;;;4999110;28;20038;-76
2021/08/01 01:30:00;;;;;;;4.40;3.65;;;14.80;99.90;;;;;;4999059;28;20030;-76
2021/08/01 01:32:55;;;;;;;4.45;3.88;;;14.90;99.90;;;;;;4993207;28;20116;-76
2021/08/01 01:35:21;;;;;;;4.53;3.33;;;15.20;99.90;;;;;;4994346;28;20065;-76
2021/08/01 01:37:49;;;;;;;4.47;3.78;;;15.40;99.90;;;;;;4998519;28;20034;-76
2021/08/01 01:40:20;;;;;;;7.45;3.78;;;15.40;99.90;;;;;;4992449;28;20365;-76
2021/08/01 01:42:50;;;;;;;4.40;4.00;;;15.20;99.90;;;;;;5017080;28;20076;-77
2021/08/01 01:45:18;;;;;;;4.97;3.90;;;15.40;99.90;;;;;;5009922;28;20118;-76
2021/08/01 01:47:46;;;;;;;4.57;3.63;;;15.10;99.90;;;;;;5010354;28;20030;-76
2021/08/01 01:50:12;;;;;;;7.43;4.47;;;15.00;99.90;;;;;;5003411;28;20041;-76
2021/08/01 01:52:39;;;;;;;5.80;4.30;;;15.00;99.90;;;;;;5002270;28;20022;-76
2021/08/01 01:55:05;;;;;;;8.15;4.38;;;14.50;99.90;;;;;;5008359;28;20034;-75
2021/08/01 01:57:31;;;;;;;5.45;4.43;;;14.40;99.90;;;;;;5009796;28;20416;-75
2021/08/01 01:59:58;;;;;;;6.07;4.13;;;14.50;99.90;;;;;;5002799;28;20062;-75
2021/08/01 02:02:24;;;;;;;4.28;3.88;;;14.60;99.90;;;;;;5000086;28;20030;-75
2021/08/01 02:04:50;;;;;;;5.18;3.83;;;14.90;99.90;;;;;;4995547;28;20019;-75
2021/08/01 02:07:20;;;;;;;6.25;4.05;;;15.00;99.90;;;;;;5008609;28;20026;-75
2021/08/01 02:10:14;;;;;;;4.72;3.75;;;14.90;99.90;;;;;;4995675;28;20400;-75
2021/08/01 02:12:51;;;;;;;6.85;4.00;;;15.10;99.90;;;;;;4991497;28;20121;-75
2021/08/01 02:15:23;;;;;;;7.10;4.20;;;15.00;99.90;;;;;;5004933;28;20031;-76
2021/08/01 02:17:57;;;;;;;7.57;4.03;;;15.00;99.90;;;;;;5008525;28;20030;-76
2021/08/01 02:20:35;;;;;;;6.13;3.85;;;15.10;99.90;;;;;;5008740;28;20033;-75
2021/08/01 02:23:01;;;;;;;4.30;3.58;;;15.20;99.90;;;;;;5007349;28;20072;-75
2021/08/01 02:25:28;;;;;;;5.70;4.03;;;15.30;99.90;;;;;;4996382;28;20033;-74
2021/08/01 02:27:56;;;;;;;6.35;4.20;;;15.20;99.90;;;;;;5010088;28;20086;-74
2021/08/01 02:30:22;;;;;;;6.43;3.88;;;15.20;99.90;;;;;;4996879;28;20065;-73
2021/08/01 02:32:49;;;;;;;5.50;3.65;;;15.40;99.90;;;;;;5010524;28;20026;-75
2021/08/01 02:35:16;;;;;;;4.82;4.20;;;15.60;99.90;;;;;;5003528;28;20080;-75
2021/08/01 02:37:44;;;;;;;4.40;4.00;;;15.50;99.90;;;;;;5014854;28;20120;-75
2021/08/01 02:40:11;;;;;;;6.78;3.83;;;15.40;99.90;;;;;;4978520;28;20051;-75
2021/08/01 02:42:38;;;;;;;7.03;5.03;;;15.50;99.90;;;;;;4998334;28;20026;-75
2021/08/01 02:45:04;;;;;;;5.20;3.97;;;15.50;99.90;;;;;;5001421;28;20026;-74
2021/08/01 02:47:32;;;;;;;4.78;4.20;;;14.90;99.90;;;;;;5000786;28;20030;-75
2021/08/01 02:50:00;;;;;;;5.72;4.45;;;14.90;99.90;;;;;;4988884;28;20033;-75
2021/08/01 02:52:39;;;;;;;5.80;4.13;;;15.30;99.90;;;;;;5001286;28;20042;-75
2021/08/01 02:55:07;;;;;;;6.57;4.70;;;14.80;99.90;;;;;;4993508;28;20022;-75
2021/08/01 02:57:35;;;;;;;6.22;4.18;;;14.70;99.90;;;;;;5006611;28;20033;-75
2021/08/01 03:00:03;;;;;;;7.57;4.03;;;14.90;99.90;;;;;;5003040;28;20025;-75
2021/08/01 03:02:29;;;;;;;5.50;4.20;;;15.00;99.90;;;;;;5000910;28;20045;-76
2021/08/01 03:04:55;;;;;;;5.93;4.28;;;15.10;99.90;;;;;;5012658;28;20104;-75
2021/08/01 03:07:21;;;;;;;6.03;4.50;;;14.90;99.90;;;;;;5000032;28;20553;-76
2021/08/01 03:09:47;;;;;;;5.32;4.22;;;14.80;99.90;;;;;;5004057;28;20030;-76
2021/08/01 03:12:14;;;;;;;5.75;3.95;;;14.80;99.90;;;;;;5009327;28;20032;-76
2021/08/01 03:14:40;;;;;;;5.88;3.92;;;14.90;99.90;;;;;;5003700;28;20033;-76
2021/08/01 03:17:07;;;;;;;5.72;4.60;;;15.10;99.90;;;;;;5005986;28;20137;-76
2021/08/01 03:19:34;;;;;;;6.32;4.65;;;15.00;99.90;;;;;;5004325;28;20014;-75
2021/08/01 03:22:00;;;;;;;6.78;5.05;;;14.70;99.90;;;;;;4997126;28;20507;-75
2021/08/01 03:24:25;;;;;;;8.95;5.00;;;14.60;99.90;;;;;;4993960;28;20026;-75
2021/08/01 03:26:51;;;;;;;5.85;4.80;;;14.80;99.90;;;;;;4994027;28;20034;-75
2021/08/01 03:29:17;;;;;;;6.53;4.72;;;14.70;99.90;;;;;;4994080;28;20033;-75
2021/08/01 03:31:42;;;;;;;8.25;4.82;;;14.20;99.90;;;;;;5010595;28;20030;-75
2021/08/01 03:34:08;;;;;;;7.20;5.00;;;14.20;99.90;;;;;;5003896;28;20041;-76
2021/08/01 03:36:33;;;;;;;6.28;4.70;;;14.50;99.90;;;;;;5007016;28;20061;-75
2021/08/01 03:38:59;;;;;;;5.22;4.50;;;14.80;99.90;;;;;;5003763;28;20033;-75
2021/08/01 03:41:27;;;;;;;6.28;4.63;;;14.90;99.90;;;;;;5010396;28;20026;-75
2021/08/01 03:43:52;;;;;;;5.82;4.88;;;15.00;99.90;;;;;;5003888;28;20033;-76
2021/08/01 03:46:18;;;;;;;7.13;4.50;;;14.90;99.90;;;;;;4998605;28;20026;-76
2021/08/01 03:48:43;;;;;;;6.65;5.00;;;15.00;99.90;;;;;;5004109;28;20130;-75
2021/08/01 03:51:09;;;;;;;5.25;4.35;;;15.20;99.90;;;;;;5006894;28;20038;-75
2021/08/01 03:53:34;;;;;;;7.20;5.43;;;15.30;99.90;;;;;;5002591;28;20117;-75
2021/08/01 03:56:03;;;;;;;7.03;5.53;;;15.20;99.90;;;;;;4998304;28;20033;-76
2021/08/01 03:58:29;;;;;;;7.20;5.47;;;14.90;99.90;;;;;;5003738;28;20028;-75
2021/08/01 04:00:55;;;;;;;9.40;6.15;;;14.60;99.90;;;;;;5007091;28;20029;-75
2021/08/01 04:03:21;;;;;;;8.10;5.90;;;14.50;99.90;;;;;;5004175;28;20038;-74
2021/08/01 04:05:46;;;;;;;6.90;5.85;;;14.50;99.90;;;;;;4999731;28;20114;-74
2021/08/01 04:08:11;;;;;;;7.78;5.75;;;14.60;99.90;;;;;;5002620;28;20023;-73
2021/08/01 04:10:37;;;;;;;7.95;5.78;;;14.50;99.90;;;;;;5009986;28;20505;-73
2021/08/01 04:13:03;;;;;;;6.88;5.85;;;14.50;99.90;;;;;;5001457;28;20064;-73
2021/08/01 04:15:28;;;;;;;6.78;6.00;;;14.50;99.90;;;;;;5006063;28;20088;-72
2021/08/01 04:17:54;;;;;;;7.32;6.57;;;14.20;99.90;;;;;;5003946;28;20480;-73
2021/08/01 04:20:20;;;;;;;7.57;6.70;;;13.90;99.90;;;;;;4999991;28;20026;-73
2021/08/01 04:22:45;;;;;;;6.88;5.78;;;13.90;99.90;;;;;;5002826;28;20057;-74
2021/08/01 04:25:11;;;;;;;7.97;5.88;;;14.00;99.90;;;;;;5006047;28;20085;-73
2021/08/01 04:27:37;;;;;;;7.40;6.50;;;14.30;99.90;;;;;;4992881;28;20030;-73
2021/08/01 04:30:03;;;;;;;7.65;6.57;;;14.30;99.90;;;;;;5006170;28;20026;-74
2021/08/01 04:32:29;;;;;;;8.80;7.00;;;14.00;99.90;;;;;;5002360;28;20044;-73
2021/08/01 04:34:54;;;;;;;7.22;6.53;;;14.10;99.90;;;;;;4998839;28;20026;-74
2021/08/01 04:37:20;;;;;;;8.77;7.10;;;14.40;99.90;;;;;;5001709;28;20037;-73
2021/08/01 04:39:45;;;;;;;9.13;6.50;;;14.50;99.90;;;;;;5005911;28;20129;-73
2021/08/01 04:42:11;;;;;;;7.65;6.68;;;14.70;99.90;;;;;;4992668;28;20057;-72
2021/08/01 04:44:36;;;;;;;8.30;7.38;;;14.90;99.90;;;;;;5008246;28;20041;-73
2021/08/01 04:47:02;;;;;;;8.80;7.38;;;14.80;99.90;;;;;;5003456;28;20030;-74
2021/08/01 04:49:28;;;;;;;12.70;8.23;;;14.60;99.90;;;;;;5005818;28;20128;-73
2021/08/01 04:51:53;;;;;;;9.43;7.90;;;14.40;99.90;;;;;;5001209;28;20037;-74
2021/08/01 04:54:19;;;;;;;10.27;8.10;;;14.20;99.90;;;;;;4998822;28;20074;-74
2021/08/01 04:56:45;;;;;;;9.95;8.38;;;14.10;99.90;;;;;;5004069;28;20030;-74
2021/08/01 04:59:11;;;;;;;10.20;8.38;;;14.10;99.90;;;;;;5005733;28;20026;-73
2021/08/01 05:01:37;;;;;;;10.55;8.38;;;14.00;99.90;;;;;;5000608;28;20030;-75
2021/08/01 05:04:02;;;;;;;9.98;8.82;;;14.10;99.90;;;;;;5012042;28;20088;-72
2021/08/01 05:06:28;;;;;;;10.27;8.70;;;14.20;99.90;;;;;;5002582;28;20057;-73
2021/08/01 05:08:53;;;;;;;10.32;8.90;;;14.20;99.90;;;;;;5005537;28;20481;-74
2021/08/01 05:11:19;;;;;;;10.85;9.02;;;14.20;99.90;;;;;;5001174;28;20030;-74
2021/08/01 05:13:44;;;;;;;11.73;9.18;;;14.00;99.90;;;;;;4998818;28;20022;-74
2021/08/01 05:16:17;;;;;;;10.35;9.20;;;13.90;99.90;;;;;;5010625;28;20033;-74
2021/08/01 05:18:43;;;;;;;10.32;8.63;;;14.00;99.90;;;;;;4998902;28;20094;-74
2021/08/01 05:21:08;;;;;;;11.45;8.48;;;14.00;99.90;;;;;;5001585;28;20027;-73
2021/08/01 05:23:34;;;;;;;12.88;9.60;;;14.00;99.90;;;;;;5005481;28;20026;-74
2021/08/01 05:25:59;;;;;;;14.23;9.68;;;13.90;99.90;;;;;;5002303;28;20018;-74
2021/08/01 05:28:25;;;;;;;14.15;10.27;;;13.90;99.90;;;;;;5008716;28;20035;-74
2021/08/01 05:30:50;;;;;;;15.77;10.98;;;14.10;99.90;;;;;;5002141;28;20053;-73
2021/08/01 05:33:16;;;;;;;13.15;11.50;;;13.90;99.90;;;;;;5008853;28;20113;-73
2021/08/01 05:35:41;;;;;;;15.88;11.80;;;14.10;99.90;;;;;;5001512;28;20033;-73
2021/08/01 05:38:07;;;;;;;16.88;12.02;;;14.30;99.90;;;;;;4998488;28;20033;-75
2021/08/01 05:40:33;;;;;;;13.57;11.98;;;14.30;99.90;;;;;;5002367;28;20027;-73
2021/08/01 05:42:59;;;;;;;13.45;11.68;;;14.30;99.90;;;;;;5005403;28;20136;-73
2021/08/01 05:45:26;;;;;;;14.45;12.07;;;14.40;99.90;;;;;;5000286;28;20619;-73
2021/08/01 05:47:52;;;;;;;17.05;11.73;;;14.60;99.90;;;;;;4998642;28;20052;-73
2021/08/01 05:50:18;;;;;;;12.65;10.93;;;14.60;99.90;;;;;;5001823;28;20116;-74
2021/08/01 05:52:43;;;;;;;15.70;12.48;;;14.70;99.90;;;;;;4995049;28;20424;-73
2021/08/01 05:55:09;;;;;;;14.05;12.52;;;14.70;99.90;;;;;;5002171;28;20038;-73
2021/08/01 05:57:34;;;;;;;16.35;13.32;;;14.50;99.90;;;;;;5005142;28;20494;-73
2021/08/01 06:00:00;;;;;;;20.58;13.43;;;14.40;99.90;;;;;;5000624;28;20026;-74
2021/08/01 06:02:25;;;;;;;15.98;13.55;;;14.30;99.90;;;;;;4998204;28;20396;-73
2021/08/01 06:04:51;;;;;;;16.08;12.40;;;14.30;99.90;;;;;;5002049;28;20073;-73
2021/08/01 06:07:17;;;;;;;15.18;13.25;;;14.50;99.90;;;;;;5005266;28;20054;-73
2021/08/01 06:09:43;;;;;;;15.27;13.00;;;14.50;99.90;;;;;;5000856;28;20037;-75
2021/08/01 06:12:12;;;;;;;19.38;13.20;;;14.50;99.90;;;;;;4996033;28;20026;-73
2021/08/01 06:14:37;;;;;;;17.55;14.02;;;14.60;99.90;;;;;;5000821;28;20080;-73
2021/08/01 06:17:03;;;;;;;17.50;13.48;;;14.70;99.90;;;;;;4998019;28;20026;-73
2021/08/01 06:19:28;;;;;;;16.67;12.95;;;14.80;99.90;;;;;;5002552;28;20041;-75
2021/08/01 06:21:54;;;;;;;16.85;13.82;;;14.70;99.90;;;;;;5004355;28;20076;-73
2021/08/01 06:24:19;;;;;;;17.15;13.10;;;14.80;99.90;;;;;;5003402;28;20033;-73
2021/08/01 06:26:45;;;;;;;18.60;13.18;;;14.80;99.90;;;;;;5001696;28;20031;-74
2021/08/01 06:29:10;;;;;;;16.67;13.48;;;14.70;99.90;;;;;;5006705;28;20029;-73
2021/08/01 06:31:36;;;;;;;17.23;13.88;;;14.60;99.90;;;;;;5008321;28;20244;-73
2021/08/01 06:34:01;;;;;;;19.42;14.85;;;14.50;99.90;;;;;;4995130;28;20109;-74
2021/08/01 06:36:27;;;;;;;18.63;14.65;;;14.60;99.90;;;;;;4996063;28;20034;-74
2021/08/01 06:38:53;;;;;;;19.42;14.32;;;14.40;99.90;;;;;;5006826;28;20575;-72
2021/08/01 06:41:18;;;;;;;19.23;15.48;;;14.40;99.90;;;;;;4994718;28;20026;-74
2021/08/01 06:43:44;;;;;;;22.20;15.07;;;14.50;99.90;;;;;;5002663;28;20361;-74
2021/08/01 06:46:10;;;;;;;20.30;15.25;;;14.40;99.90;;;;;;5001053;28;20109;-74
2021/08/01 06:48:37;;;;;;;16.02;14.38;;;14.50;99.90;;;;;;5006875;28;20040;-74
2021/08/01 06:51:02;;;;;;;20.50;14.77;;;14.60;99.90;;;;;;5007749;28;20482;-74
2021/08/01 06:53:29;;;;;;;17.33;15.10;;;14.60;99.90;;;;;;5002544;28;20109;-74
2021/08/01 06:55:54;;;;;;;16.75;14.50;;;14.80;99.90;;;;;;5000952;28;20030;-73
2021/08/01 06:58:20;;;;;;;19.60;15.18;;;14.90;99.90;;;;;;5006539;28;20026;-73
2021/08/01 07:00:47;;;;;;;20.73;15.60;;;14.90;99.90;;;;;;5007779;28;20026;-74
2021/08/01 07:03:12;;;;;;;17.88;14.90;;;14.90;99.90;;;;;;4994658;28;20098;-73
2021/08/01 07:05:38;;;;;;;19.48;14.90;;;15.00;99.90;;;;;;4994295;28;20110;-74
2021/08/01 07:08:04;;;;;;;17.10;15.30;;;15.00;99.90;;;;;;5003534;28;20033;-74
2021/08/01 07:10:29;;;;;;;17.50;15.30;;;15.00;99.90;;;;;;5000841;28;20424;-74
2021/08/01 07:12:55;;;;;;;19.65;16.00;;;15.00;99.90;;;;;;5004670;28;20030;-74
2021/08/01 07:15:24;;;;;;;22.13;15.05;;;15.10;99.90;;;;;;5007289;28;20109;-74
2021/08/01 07:17:54;;;;;;;19.63;15.35;;;15.20;99.90;;;;;;5003975;28;20034;-73
2021/08/01 07:20:20;;;;;;;20.30;15.02;;;15.20;99.90;;;;;;5000723;28;20169;-73
2021/08/01 07:22:45;;;;;;;18.27;14.73;;;15.00;99.90;;;;;;5003642;28;20097;-74
2021/08/01 07:25:11;;;;;;;18.00;15.45;;;15.20;99.90;;;;;;5009113;28;20076;-73
2021/08/01 07:27:37;;;;;;;16.63;14.18;;;15.20;99.90;;;;;;5007473;28;20476;-73
2021/08/01 07:30:04;;;;;;;16.98;14.85;;;15.20;99.90;;;;;;5000353;28;20041;-73
2021/08/01 07:32:29;;;;;;;17.80;14.73;;;15.20;99.90;;;;;;5002629;28;20066;-74
2021/08/01 07:34:55;;;;;;;16.85;13.68;;;15.30;99.90;;;;;;4997189;28;20052;-74
2021/08/01 07:37:21;;;;;;;17.75;13.73;;;15.20;99.90;;;;;;5002229;28;20480;-74
2021/08/01 07:39:47;;;;;;;18.17;13.65;;;15.10;99.90;;;;;;5007015;28;20052;-74
2021/08/01 07:42:13;;;;;;;14.50;13.00;;;15.20;99.90;;;;;;4992621;28;20504;-73
2021/08/01 07:44:50;;;;;;;15.35;13.27;;;15.50;99.90;;;;;;4996798;28;20121;-74
2021/08/01 07:47:22;;;;;;;16.85;14.27;;;15.60;99.90;;;;;;5001850;28;20037;-73
2021/08/01 07:49:49;;;;;;;16.35;13.93;;;15.50;99.90;;;;;;5006609;28;20069;-74
2021/08/01 07:52:16;;;;;;;15.95;12.90;;;15.80;99.90;;;;;;5005863;28;20105;-73
2021/08/01 07:54:41;;;;;;;17.55;12.63;;;15.70;99.90;;;;;;4999539;28;20033;-74
2021/08/01 07:57:20;;;;;;;13.65;12.25;;;15.70;99.90;;;;;;5000795;28;20400;-73
2021/08/01 07:59:45;;;;;;;16.00;12.60;;;15.60;99.90;;;;;;4988378;28;20056;-74
2021/08/01 08:02:11;;;;;;;14.80;12.20;;;16.00;99.90;;;;;;5012461;28;20122;-74
2021/08/01 08:04:36;;;;;;;13.50;11.32;;;15.90;99.90;;;;;;4993260;28;20077;-74
2021/08/01 08:07:02;;;;;;;14.50;11.75;;;15.90;99.90;;;;;;5006584;28;20508;-74
2021/08/01 08:09:27;;;;;;;14.05;11.13;;;15.80;99.90;;;;;;5000505;28;20018;-73
2021/08/01 08:11:53;;;;;;;13.43;11.45;;;16.10;99.90;;;;;;4999829;28;20037;-73
2021/08/01 08:14:19;;;;;;;14.02;11.35;;;16.00;99.90;;;;;;5005464;28;20105;-75
2021/08/01 08:16:44;;;;;;;14.13;11.25;;;15.80;99.90;;;;;;5006449;28;20030;-75
2021/08/01 08:19:10;;;;;;;12.25;10.77;;;15.60;99.90;;;;;;5000433;28;20022;-75
2021/08/01 08:21:35;;;;;;;14.75;11.52;;;15.80;99.90;;;;;;4998782;28;20028;-75
2021/08/01 08:24:01;;;;;;;13.82;11.18;;;16.20;99.90;;;;;;4993110;28;20528;-75
2021/08/01 08:26:27;;;;;;;13.25;10.05;;;16.30;99.90;;;;;;5005863;28;20025;-73
2021/08/01 08:28:52;;;;;;;12.10;10.40;;;16.50;99.90;;;;;;5000117;28;20040;-73
2021/08/01 08:31:18;;;;;;;12.40;10.80;;;16.80;99.90;;;;;;4999099;28;20030;-74
2021/08/01 08:33:43;;;;;;;14.27;10.60;;;16.40;99.90;;;;;;4999827;28;20449;-74
2021/08/01 08:36:09;;;;;;;12.07;9.88;;;16.40;99.90;;;;;;5011595;28;20504;-74
2021/08/01 08:38:34;;;;;;;12.98;9.57;;;16.40;99.90;;;;;;4999908;28;20026;-73
2021/08/01 08:41:00;;;;;;;11.15;9.75;;;16.40;99.90;;;;;;4998565;28;20484;-74
2021/08/01 08:43:25;;;;;;;11.10;9.88;;;16.40;99.90;;;;;;4991257;28;20026;-74
2021/08/01 08:45:52;;;;;;;11.27;9.52;;;16.20;99.90;;;;;;5005076;28;20029;-73
2021/08/01 08:48:18;;;;;;;9.80;8.80;;;16.50;99.90;;;;;;4997082;28;20021;-74
2021/08/01 08:50:48;;;;;;;10.55;8.48;;;16.20;99.90;;;;;;5006000;28;20026;-74
2021/08/01 08:53:18;;;;;;;10.32;9.15;;;16.30;99.90;;;;;;4998970;28;20396;-74
2021/08/01 08:55:44;;;;;;;10.18;8.63;;;16.30;99.90;;;;;;5004810;28;20371;-74
2021/08/01 08:58:11;;;;;;;10.75;9.65;;;16.40;99.90;;;;;;5000575;28;20551;-74
2021/08/01 09:00:37;;;;;;;13.02;9.50;;;16.50;99.90;;;;;;4998836;28;20030;-73
2021/08/01 09:03:02;;;;;;;11.23;9.15;;;16.40;99.90;;;;;;5004195;28;20033;-75
2021/08/01 09:05:28;;;;;;;10.85;8.43;;;16.20;99.90;;;;;;4993135;28;20580;-74
2021/08/01 09:07:53;;;;;;;11.00;9.88;;;16.20;99.90;;;;;;5004575;28;20033;-74
2021/08/01 09:10:19;;;;;;;9.90;8.90;;;16.20;99.90;;;;;;5005592;28;20515;-74
2021/08/01 09:12:51;;;;;;;9.10;8.02;;;16.50;99.90;;;;;;4999971;28;20087;-74
2021/08/01 09:15:20;;;;;;;10.00;8.90;;;16.70;99.90;;;;;;4998737;28;20034;-74
2021/08/01 09:17:48;;;;;;;10.73;9.63;;;16.60;99.90;;;;;;5002899;28;20022;-75
2021/08/01 09:20:27;;;;;;;11.88;8.95;;;17.00;99.90;;;;;;5004369;28;20492;-75
2021/08/01 09:22:59;;;;;;;10.75;9.05;;;17.30;99.90;;;;;;5003599;28;20105;-72
2021/08/01 09:25:27;;;;;;;9.77;8.77;;;17.40;99.90;;;;;;4997208;28;20033;-75
2021/08/01 09:28:04;;;;;;;11.77;8.20;;;17.80;99.90;;;;;;4999852;28;20030;-75
2021/08/01 09:30:43;;;;;;;9.30;8.35;;;17.70;99.90;;;;;;4998076;28;20095;-75
2021/08/01 09:33:09;;;;;;;8.95;8.05;;;17.60;99.90;;;;;;5009614;28;20109;-75
2021/08/01 09:35:34;;;;;;;8.00;7.20;;;17.70;99.90;;;;;;4992250;28;20124;-75
2021/08/01 09:38:00;;;;;;;8.23;7.05;;;17.30;99.90;;;;;;4993310;28;20030;-74
2021/08/01 09:40:31;;;;;;;9.60;7.45;;;17.10;99.90;;;;;;4992252;28;20635;-74
2021/08/01 09:43:26;;;;;;;7.20;6.50;;;17.20;99.90;;;;;;5005684;28;20032;-74
2021/08/01 09:45:58;;;;;;;7.85;6.95;;;17.10;99.90;;;;;;5005517;28;20030;-74
2021/08/01 09:48:24;;;;;;;8.48;6.10;;;17.00;99.90;;;;;;5000875;28;20045;-74
2021/08/01 09:51:02;;;;;;;7.10;6.32;;;17.00;99.90;;;;;;4998703;28;20049;-74
2021/08/01 09:53:29;;;;;;;8.27;6.35;;;16.90;99.90;;;;;;5002541;28;20392;-74
2021/08/01 09:56:17;;;;;;;10.45;7.47;;;17.10;99.90;;;;;;4996625;28;20686;-74
2021/08/01 09:58:44;;;;;;;8.00;6.40;;;17.30;99.90;;;;;;4995266;28;20026;-74
2021/08/01 10:01:10;;;;;;;8.55;6.68;;;17.50;99.90;;;;;;4996949;28;20022;-73
2021/08/01 10:03:42;;;;;;;8.82;7.13;;;17.50;99.90;;;;;;4996919;28;20026;-74
2021/08/01 10:06:21;;;;;;;9.32;6.80;;;17.90;99.90;;;;;;4989455;28;20476;-73
2021/08/01 10:08:48;;;;;;;7.55;6.80;;;17.90;99.90;;;;;;5000311;28;20037;-74
2021/08/01 10:11:19;;;;;;;7.25;6.43;;;17.90;99.90;;;;;;4995470;28;20026;-74
2021/08/01 10:13:46;;;;;;;7.78;6.40;;;18.10;99.90;;;;;;5009755;28;20018;-73
2021/08/01 10:16:13;;;;;;;8.32;6.75;;;18.00;99.90;;;;;;5005713;28;20027;-74
2021/08/01 10:18:40;;;;;;;8.10;6.07;;;17.80;99.90;;;;;;4997757;28;20454;-74
2021/08/01 10:21:06;;;;;;;7.13;6.03;;;17.80;99.90;;;;;;5005831;28;20042;-73
2021/08/01 10:23:41;;;;;;;8.05;5.80;;;18.00;99.90;;;;;;4995090;28;20050;-74
2021/08/01 10:26:08;;;;;;;7.07;5.43;;;17.70;99.90;;;;;;5004524;28;20034;-75
2021/08/01 10:28:39;;;;;;;7.78;5.38;;;17.90;99.90;;;;;;5008131;28;20019;-73
2021/08/01 10:31:08;;;;;;;8.35;4.60;;;18.30;99.90;;;;;;4995245;28;20033;-73
2021/08/01 10:33:47;;;;;;;8.85;5.32;;;18.60;99.90;;;;;;5008370;28;20030;-74
2021/08/01 10:36:20;;;;;;;5.25;4.25;;;18.70;99.90;;;;;;4994881;28;20054;-74
2021/08/01 10:38:47;;;;;;;5.75;4.57;;;18.60;99.90;;;;;;5010944;28;20058;-74
2021/08/01 10:41:13;;;;;;;5.80;5.00;;;19.00;99.90;;;;;;4998612;28;20018;-74
2021/08/01 10:43:41;;;;;;;6.82;4.60;;;19.00;99.90;;;;;;5003235;28;20018;-74
2021/08/01 10:46:08;;;;;;;5.35;4.10;;;19.00;99.90;;;;;;4990157;28;20023;-73
2021/08/01 10:48:34;;;;;;;4.95;3.55;;;19.10;99.90;;;;;;5003415;28;20022;-74
2021/08/01 10:51:00;;;;;;;3.85;3.15;;;18.80;99.90;;;;;;5001179;28;20045;-74
2021/08/01 10:53:28;;;;;;;4.82;2.80;;;19.00;99.90;;;;;;5005767;28;20018;-73
2021/08/01 10:56:06;;;;;;;2.70;2.30;;;19.10;99.90;;;;;;4994571;28;20019;-74
2021/08/01 10:58:38;;;;;;;3.83;2.78;;;19.60;99.90;;;;;;5005233;28;20068;-74
2021/08/01 11:01:04;;;;;;;2.70;2.50;;;19.40;99.90;;;;;;5000829;28;20030;-74
2021/08/01 11:03:32;;;;;;;3.10;2.50;;;19.80;99.90;;;;;;5002836;28;20109;-74
2021/08/01 11:05:58;;;;;;;3.83;2.60;;;19.90;99.90;;;;;;4999680;28;20064;-73
2021/08/01 11:08:25;;;;;;;2.50;2.30;;;20.30;99.90;;;;;;5001599;28;20022;-73
2021/08/01 11:11:09;;;;;;;3.20;2.78;;;20.20;99.90;;;;;;4994472;28;20145;-74
2021/08/01 11:13:41;;;;;;;4.40;2.67;;;19.80;99.90;;;;;;4997835;28;20027;-73
2021/08/01 11:16:08;;;;;;;3.22;2.03;;;20.40;99.90;;;;;;4996582;28;20496;-73
2021/08/01 11:18:37;;;;;;;3.88;2.60;;;20.10;99.90;;;;;;4993820;28;20488;-73
2021/08/01 11:21:03;;;;;;;3.80;2.72;;;20.40;99.90;;;;;;4994330;28;20026;-73
2021/08/01 11:23:45;;;;;;;7.28;2.95;;;20.10;99.90;;;;;;4993500;28;20023;-73
2021/08/01 11:26:14;;;;;;;4.22;3.30;;;19.70;99.90;;;;;;4995351;28;20354;-74
2021/08/01 11:28:41;;;;;;;2.92;2.50;;;19.80;99.90;;;;;;5012022;28;20092;-75
2021/08/01 11:31:21;;;;;;;3.63;2.70;;;19.80;99.90;;;;;;4999210;28;20038;-74
2021/08/01 11:33:49;;;;;;;4.15;2.95;;;19.80;99.90;;;;;;4999813;28;20108;-74
2021/08/01 11:36:15;;;;;;;4.15;2.85;;;19.30;99.90;;;;;;4995112;28;20022;-74
2021/08/01 11:38:59;;;;;;;4.55;2.90;;;19.20;99.90;;;;;;5000891;28;20025;-74
2021/08/01 11:41:27;;;;;;;5.68;2.70;;;19.30;99.90;;;;;;4997413;28;20027;-73
2021/08/01 11:43:57;;;;;;;2.80;2.50;;;19.70;99.90;;;;;;4993844;28;20495;-73
2021/08/01 11:46:23;;;;;;;3.13;2.38;;;19.90;99.90;;;;;;4993506;28;20389;-73
2021/08/01 11:48:59;;;;;;;2.95;2.65;;;20.20;99.90;;;;;;4993573;28;20366;-73
2021/08/01 11:51:30;;;;;;;4.32;2.63;;;20.60;99.90;;;;;;4994902;28;20057;-74
2021/08/01 11:53:56;;;;;;;6.25;3.20;;;20.80;99.90;;;;;;4993254;28;20389;-74
2021/08/01 11:56:22;;;;;;;4.55;3.10;;;20.60;99.90;;;;;;4990823;28;20034;-73
2021/08/01 11:58:53;;;;;;;5.72;3.38;;;20.30;99.90;;;;;;4990148;28;20149;-73
2021/08/01 12:01:20;;;;;;;2.90;2.60;;;20.70;99.90;;;;;;4993321;28;20072;-73
2021/08/01 12:03:48;;;;;;;6.15;2.78;;;20.40;99.90;;;;;;5003884;28;20118;-74
2021/08/01 12:06:37;;;;;;;3.70;2.50;;;20.30;99.90;;;;;;4992818;28;20022;-73
2021/08/01 12:09:19;;;;;;;3.50;2.63;;;21.00;99.90;;;;;;5010290;28;20032;-74
2021/08/01 12:11:47;;;;;;;4.00;2.20;;;20.90;99.90;;;;;;5012944;28;20121;-74
2021/08/01 12:14:14;;;;;;;4.63;2.60;;;20.70;99.90;;;;;;4999664;28;20025;-73
2021/08/01 12:17:00;;;;;;;4.35;2.63;;;20.40;99.90;;;;;;4998468;28;20029;-73
2021/08/01 12:19:34;;;;;;;2.92;2.60;;;19.80;99.90;;;;;;5000218;28;20021;-73
2021/08/01 12:22:13;;;;;;;4.05;2.70;;;20.10;99.90;;;;;;4995981;28;20030;-73
2021/08/01 12:24:41;;;;;;;3.67;2.70;;;20.30;99.90;;;;;;4992787;28;20031;-73
2021/08/01 12:27:15;;;;;;;3.85;2.70;;;20.60;99.90;;;;;;4992902;28;20659;-73
2021/08/01 12:29:53;;;;;;;5.57;2.95;;;21.00;99.90;;;;;;5004785;28;20037;-73
2021/08/01 12:32:26;;;;;;;2.70;2.50;;;20.70;99.90;;;;;;4979994;28;20038;-73
2021/08/01 12:35:10;;;;;;;3.90;2.50;;;20.30;99.90;;;;;;4991376;28;20435;-73
2021/08/01 12:37:57;;;;;;;4.55;2.50;;;20.30;99.90;;;;;;4992833;28;20101;-73
2021/08/01 12:40:37;;;;;;;3.88;2.60;;;20.80;99.90;;;;;;4988639;28;20033;-73
2021/08/01 12:43:08;;;;;;;3.42;2.50;;;20.60;99.90;;;;;;4999216;28;20029;-73
2021/08/01 12:45:38;;;;;;;3.35;2.65;;;20.80;99.90;;;;;;5001933;28;20499;-73
2021/08/01 12:48:09;;;;;;;3.83;2.60;;;20.70;99.90;;;;;;4996950;28;20026;-73